Time;durP1;ratioP1;P1;durP2;ratioP2;P2;SDS_P1;SDS_P2;PMS_P1;PMS_P2;Temp;Humidity;BMP_temperature;BMP_pressure;BME280_temperature;BME280_humidity;BME280_pressure;Samples;Min_cycle;Max_cycle;Signal;HPM_P1;HPM_P2
2022/02/23 00:01:38;;;;;;;15.98;10.15;;;5.50;83.70;;;;;;5049924;28;20052;-51
2022/02/23 00:04:42;;;;;;;17.58;11.00;;;5.50;83.40;;;;;;5049345;28;20530;-52
2022/02/23 00:07:46;;;;;;;15.57;8.88;;;5.50;83.00;;;;;;5050033;28;20060;-52
2022/02/23 00:10:50;;;;;;;14.35;8.73;;;5.50;81.80;;;;;;5049684;28;20427;-52
2022/02/23 00:13:55;;;;;;;16.00;8.68;;;5.50;82.10;;;;;;5049683;28;20113;-52
2022/02/23 00:16:59;;;;;;;22.42;12.65;;;5.50;81.80;;;;;;5055633;22;20045;-67
2022/02/23 00:20:05;;;;;;;20.05;11.05;;;5.50;81.90;;;;;;5030556;28;20393;-67
2022/02/23 00:23:09;;;;;;;13.90;8.60;;;5.60;82.70;;;;;;5030875;28;20040;-67
2022/02/23 00:26:13;;;;;;;23.38;12.27;;;5.50;83.00;;;;;;5029859;28;20531;-67
2022/02/23 00:29:18;;;;;;;26.05;13.82;;;5.40;83.90;;;;;;5029747;28;20052;-67
2022/02/23 00:32:22;;;;;;;39.50;19.17;;;5.30;85.00;;;;;;5030703;28;20053;-67
2022/02/23 00:35:26;;;;;;;259.30;119.50;;;5.20;85.80;;;;;;5029052;28;20388;-67
2022/02/23 00:38:30;;;;;;;22.35;12.50;;;5.10;85.40;;;;;;5040515;28;20503;-67
2022/02/23 00:41:34;;;;;;;11.45;8.25;;;5.00;86.10;;;;;;5030116;28;20036;-67
2022/02/23 00:44:38;;;;;;;20.98;12.23;;;5.00;86.00;;;;;;5017690;28;20052;-67
2022/02/23 00:47:42;;;;;;;16.63;9.80;;;5.00;87.70;;;;;;5030132;28;20040;-67
2022/02/23 00:50:46;;;;;;;17.52;9.20;;;4.90;89.70;;;;;;5028600;28;20034;-67
2022/02/23 00:53:50;;;;;;;14.65;7.88;;;4.90;91.10;;;;;;5029859;28;20049;-67
2022/02/23 00:56:54;;;;;;;12.15;7.30;;;4.90;92.10;;;;;;5029963;28;20040;-67
2022/02/23 00:59:58;;;;;;;92.97;52.70;;;4.90;90.80;;;;;;5029563;28;20064;-67
2022/02/23 01:03:02;;;;;;;108.13;62.95;;;4.80;90.00;;;;;;5029972;28;20107;-67
2022/02/23 01:06:06;;;;;;;81.63;46.28;;;4.70;89.70;;;;;;5028908;28;20048;-67
2022/02/23 01:09:10;;;;;;;14.20;7.70;;;4.70;89.50;;;;;;5029286;28;20061;-67
2022/02/23 01:12:15;;;;;;;50.05;25.77;;;4.60;89.60;;;;;;5028783;28;20509;-66
2022/02/23 01:15:22;;;;;;;20.48;12.00;;;4.70;89.60;;;;;;5030002;28;20045;-67
2022/02/23 01:18:26;;;;;;;11.38;6.68;;;4.60;90.00;;;;;;5029906;28;20381;-67
2022/02/23 01:21:31;;;;;;;22.60;11.32;;;4.50;90.30;;;;;;5029663;28;20041;-67
2022/02/23 01:24:34;;;;;;;14.15;8.50;;;4.60;90.00;;;;;;5029282;28;20036;-67
2022/02/23 01:27:39;;;;;;;15.75;8.18;;;4.60;89.00;;;;;;5029623;28;20040;-67
2022/02/23 01:30:42;;;;;;;12.93;7.88;;;4.70;89.10;;;;;;5029552;28;20048;-67
2022/02/23 01:33:46;;;;;;;12.73;7.50;;;4.70;89.40;;;;;;5030145;28;20064;-67
2022/02/23 01:36:53;;;;;;;11.38;6.68;;;4.70;89.80;;;;;;5033166;28;20505;-67
2022/02/23 01:39:57;;;;;;;36.20;16.73;;;4.70;90.00;;;;;;5034451;28;20049;-67
2022/02/23 01:43:01;;;;;;;19.17;10.45;;;4.70;90.00;;;;;;5034147;28;20052;-66
2022/02/23 01:46:05;;;;;;;13.55;7.40;;;4.60;90.40;;;;;;5033349;28;20389;-67
2022/02/23 01:49:09;;;;;;;12.05;7.13;;;4.50;90.90;;;;;;5033087;28;20399;-67
2022/02/23 01:52:14;;;;;;;10.73;6.57;;;4.40;91.10;;;;;;5033992;28;20379;-67
2022/02/23 01:55:18;;;;;;;10.45;6.68;;;4.40;91.00;;;;;;5033204;28;20037;-67
2022/02/23 01:58:22;;;;;;;13.95;6.55;;;4.50;90.70;;;;;;5032700;28;20503;-66
2022/02/23 02:01:26;;;;;;;11.70;5.90;;;4.60;89.80;;;;;;5033038;28;20050;-67
2022/02/23 02:04:32;;;;;;;13.50;7.43;;;4.60;90.00;;;;;;5033757;28;20041;-67
2022/02/23 02:07:36;;;;;;;12.25;7.03;;;4.70;89.80;;;;;;5033380;28;20053;-67
2022/02/23 02:10:40;;;;;;;13.30;6.70;;;4.70;89.70;;;;;;5032899;28;20048;-67
2022/02/23 02:13:44;;;;;;;11.75;7.03;;;4.70;90.00;;;;;;5032909;28;20044;-66
2022/02/23 02:16:48;;;;;;;12.57;6.95;;;4.70;90.60;;;;;;5020438;28;20052;-67
2022/02/23 02:19:52;;;;;;;14.68;8.45;;;4.60;91.30;;;;;;5033172;28;20049;-66
2022/02/23 02:22:56;;;;;;;12.18;7.05;;;4.50;91.10;;;;;;5033528;28;20033;-67
2022/02/23 02:26:00;;;;;;;13.23;7.05;;;4.40;91.80;;;;;;5032168;28;20056;-66
2022/02/23 02:29:04;;;;;;;15.23;6.13;;;4.20;92.30;;;;;;5033496;28;20044;-66
2022/02/23 02:32:10;;;;;;;11.43;6.30;;;4.00;92.90;;;;;;5032866;28;20043;-66
2022/02/23 02:35:17;;;;;;;8.85;5.40;;;3.90;93.50;;;;;;5021336;28;20042;-67
2022/02/23 02:38:21;;;;;;;9.35;4.93;;;3.90;94.00;;;;;;5031875;28;20642;-66
2022/02/23 02:41:25;;;;;;;10.43;5.75;;;3.90;94.50;;;;;;5034713;28;20307;-66
2022/02/23 02:44:29;;;;;;;13.68;5.75;;;4.00;94.70;;;;;;5032790;28;20311;-66
2022/02/23 02:47:33;;;;;;;38.47;21.00;;;4.00;94.30;;;;;;5032210;28;20045;-66
2022/02/23 02:50:38;;;;;;;7.88;4.47;;;4.10;93.50;;;;;;5031803;28;20053;-67
2022/02/23 02:53:42;;;;;;;8.75;4.40;;;4.10;93.80;;;;;;5031603;28;20042;-66
2022/02/23 02:56:47;;;;;;;6.90;4.38;;;4.10;93.30;;;;;;5031967;28;20045;-66
2022/02/23 02:59:51;;;;;;;8.45;4.30;;;4.10;94.30;;;;;;5032083;28;20465;-66
2022/02/23 03:02:55;;;;;;;9.43;5.38;;;4.10;95.70;;;;;;5032569;28;20049;-67
2022/02/23 03:05:59;;;;;;;9.52;5.43;;;4.00;95.00;;;;;;5030683;28;20033;-67
2022/02/23 03:09:05;;;;;;;9.25;4.93;;;3.90;94.60;;;;;;5031400;28;20385;-67
2022/02/23 03:12:10;;;;;;;11.75;5.53;;;3.80;95.90;;;;;;5032235;28;20037;-66
2022/02/23 03:15:14;;;;;;;9.70;5.13;;;3.70;96.90;;;;;;5043910;28;20033;-66
2022/02/23 03:18:18;;;;;;;8.95;5.45;;;3.60;97.50;;;;;;5032518;28;20477;-66
2022/02/23 03:21:22;;;;;;;11.20;5.85;;;3.50;97.80;;;;;;5033331;28;20049;-66
2022/02/23 03:24:27;;;;;;;11.02;5.05;;;3.40;97.70;;;;;;5032385;28;20037;-66
2022/02/23 03:27:31;;;;;;;9.48;6.10;;;3.30;97.80;;;;;;5031394;28;20044;-66
2022/02/23 03:30:38;;;;;;;10.68;6.40;;;3.30;97.80;;;;;;5031216;28;20284;-66
2022/02/23 03:33:46;;;;;;;14.27;7.53;;;3.20;98.60;;;;;;5031078;28;20057;-66
2022/02/23 03:36:50;;;;;;;12.32;7.38;;;3.20;98.80;;;;;;5030379;28;20049;-67
2022/02/23 03:39:54;;;;;;;12.23;6.68;;;3.30;99.20;;;;;;5029461;28;20048;-67
2022/02/23 03:42:59;;;;;;;12.80;7.45;;;3.30;99.90;;;;;;5031318;28;20053;-66
2022/02/23 03:46:03;;;;;;;12.00;6.97;;;3.30;99.70;;;;;;5031233;28;20045;-66
2022/02/23 03:49:09;;;;;;;13.55;7.47;;;3.30;99.90;;;;;;5030407;28;20040;-66
2022/02/23 03:52:13;;;;;;;13.18;7.15;;;3.40;99.90;;;;;;5031268;28;20037;-66
2022/02/23 03:55:17;;;;;;;12.13;6.25;;;3.30;99.90;;;;;;5032000;28;20152;-66
2022/02/23 03:58:21;;;;;;;9.10;5.70;;;3.20;99.90;;;;;;5030420;28;20062;-66
2022/02/23 04:01:25;;;;;;;9.65;6.00;;;3.20;99.90;;;;;;5031230;28;20038;-66
2022/02/23 04:04:29;;;;;;;12.98;6.70;;;3.10;99.90;;;;;;5031166;28;20037;-66
2022/02/23 04:07:34;;;;;;;12.73;5.68;;;3.10;99.90;;;;;;5030458;28;20041;-66
2022/02/23 04:10:38;;;;;;;13.25;6.78;;;3.10;99.90;;;;;;5030501;28;20026;-66
2022/02/23 04:13:42;;;;;;;15.63;8.57;;;3.20;99.90;;;;;;5030546;28;20058;-67
2022/02/23 04:16:46;;;;;;;18.35;9.25;;;3.10;99.90;;;;;;5030714;28;20037;-66
2022/02/23 04:19:50;;;;;;;17.15;9.02;;;3.10;99.90;;;;;;5029748;28;20041;-66
2022/02/23 04:22:53;;;;;;;15.52;7.65;;;3.10;99.90;;;;;;5030792;28;20037;-67
2022/02/23 04:25:58;;;;;;;9.43;5.10;;;3.10;99.90;;;;;;5030040;28;20403;-66
2022/02/23 04:29:03;;;;;;;8.48;5.63;;;3.00;99.90;;;;;;5030614;28;20480;-67
2022/02/23 04:32:08;;;;;;;8.23;4.07;;;2.90;99.90;;;;;;5029908;28;20053;-66
2022/02/23 04:35:12;;;;;;;8.55;4.97;;;2.90;99.90;;;;;;5030434;28;20037;-66
2022/02/23 04:38:17;;;;;;;9.02;5.10;;;3.00;99.90;;;;;;5029909;28;20033;-66
2022/02/23 04:41:20;;;;;;;8.60;4.88;;;3.00;99.90;;;;;;5029846;28;20041;-66
2022/02/23 04:44:27;;;;;;;7.78;4.78;;;3.00;99.90;;;;;;5030208;28;20045;-66
2022/02/23 04:47:31;;;;;;;8.20;4.72;;;3.00;99.90;;;;;;5029232;28;20037;-66
2022/02/23 04:50:35;;;;;;;10.20;4.30;;;2.90;99.90;;;;;;5029454;28;20369;-66
2022/02/23 04:53:39;;;;;;;7.03;4.57;;;3.00;99.90;;;;;;5030012;28;20041;-66
2022/02/23 04:56:44;;;;;;;8.90;5.05;;;2.90;99.90;;;;;;5029956;28;20033;-66
2022/02/23 04:59:48;;;;;;;7.47;4.13;;;2.90;99.90;;;;;;5030242;28;20382;-66
2022/02/23 05:02:52;;;;;;;8.57;4.40;;;2.90;99.90;;;;;;5030982;28;20373;-66
2022/02/23 05:05:58;;;;;;;7.60;4.50;;;2.90;99.90;;;;;;5031119;28;20469;-66
2022/02/23 05:09:03;;;;;;;10.13;4.30;;;2.90;99.90;;;;;;5031778;28;20481;-66
2022/02/23 05:12:08;;;;;;;9.85;6.85;;;2.90;99.90;;;;;;5034710;28;20048;-66
2022/02/23 05:15:12;;;;;;;12.70;10.43;;;2.90;99.90;;;;;;5011694;28;20041;-66
2022/02/23 05:18:16;;;;;;;11.70;5.35;;;2.90;99.90;;;;;;5033882;28;20052;-69
2022/02/23 05:21:20;;;;;;;10.93;5.90;;;2.60;99.90;;;;;;5021798;28;20052;-66
2022/02/23 05:24:24;;;;;;;14.45;8.32;;;2.30;99.90;;;;;;5044992;28;20052;-66
2022/02/23 05:27:28;;;;;;;11.52;6.03;;;2.20;99.90;;;;;;5032463;28;20056;-66
2022/02/23 05:30:32;;;;;;;8.25;5.72;;;2.20;99.90;;;;;;5033670;28;20068;-66
2022/02/23 05:33:36;;;;;;;9.98;6.57;;;2.10;99.90;;;;;;5034878;28;20037;-66
2022/02/23 05:36:41;;;;;;;9.88;5.63;;;2.10;99.90;;;;;;5033583;28;20366;-66
2022/02/23 05:39:45;;;;;;;7.82;5.40;;;2.00;99.90;;;;;;5033577;28;20037;-66
2022/02/23 05:42:50;;;;;;;9.05;5.30;;;2.00;99.90;;;;;;5033578;28;20041;-67
2022/02/23 05:45:54;;;;;;;8.23;4.75;;;2.00;99.90;;;;;;5033741;28;20053;-66
2022/02/23 05:48:58;;;;;;;8.68;4.55;;;1.90;99.90;;;;;;5021190;28;20041;-66
2022/02/23 05:52:03;;;;;;;9.25;5.45;;;1.90;99.90;;;;;;5034043;28;20037;-66
2022/02/23 05:55:08;;;;;;;8.77;4.35;;;1.80;99.90;;;;;;5033137;28;20037;-69
2022/02/23 05:58:12;;;;;;;13.38;8.30;;;1.90;99.90;;;;;;5032971;28;20041;-66
2022/02/23 06:01:16;;;;;;;11.52;6.45;;;1.70;99.90;;;;;;5033053;28;20054;-66
2022/02/23 06:04:20;;;;;;;10.55;6.15;;;1.60;99.90;;;;;;5033212;28;20049;-66
2022/02/23 06:07:25;;;;;;;7.80;5.53;;;1.60;99.90;;;;;;5022187;28;20041;-66
2022/02/23 06:10:30;;;;;;;8.57;4.95;;;1.60;99.90;;;;;;5033478;28;20049;-66
2022/02/23 06:13:35;;;;;;;8.73;4.70;;;1.70;99.90;;;;;;5033026;28;20045;-66
2022/02/23 06:16:39;;;;;;;9.20;4.20;;;1.70;99.90;;;;;;5031661;28;20045;-67
2022/02/23 06:19:42;;;;;;;9.90;5.22;;;1.70;99.90;;;;;;5030960;28;20041;-66
2022/02/23 06:22:47;;;;;;;11.95;6.85;;;1.70;99.90;;;;;;5031296;28;20037;-67
2022/02/23 06:25:52;;;;;;;13.43;8.13;;;1.60;99.90;;;;;;5033009;28;20042;-66
2022/02/23 06:28:56;;;;;;;13.38;7.18;;;1.70;99.90;;;;;;5042175;28;20044;-66
2022/02/23 06:32:05;;;;;;;11.98;6.97;;;1.80;99.90;;;;;;5033752;28;20400;-67
2022/02/23 06:35:09;;;;;;;12.30;6.75;;;1.90;99.90;;;;;;5032537;28;20291;-67
2022/02/23 06:38:13;;;;;;;10.45;6.25;;;2.00;99.90;;;;;;5031154;28;20033;-66
2022/02/23 06:41:21;;;;;;;11.77;6.45;;;2.30;99.90;;;;;;5032510;28;20180;-67
2022/02/23 06:44:26;;;;;;;14.40;7.32;;;5.00;99.90;;;;;;5042894;28;20041;-67
2022/02/23 06:47:30;;;;;;;14.55;6.75;;;8.90;99.90;;;;;;5032055;28;20041;-67
2022/02/23 06:50:34;;;;;;;10.93;6.80;;;11.40;97.30;;;;;;5031360;28;20052;-67
2022/02/23 06:53:38;;;;;;;10.73;7.05;;;14.10;92.70;;;;;;5031117;28;20045;-67
2022/02/23 06:56:42;;;;;;;12.07;7.43;;;15.90;86.40;;;;;;5031361;28;20040;-67
2022/02/23 06:59:46;;;;;;;10.73;7.00;;;16.10;81.60;;;;;;5031490;28;20497;-67
2022/02/23 07:02:52;;;;;;;10.43;6.82;;;16.30;80.40;;;;;;5030101;28;20040;-67
2022/02/23 07:05:57;;;;;;;11.10;6.65;;;17.20;78.40;;;;;;5031986;28;20048;-67
2022/02/23 07:09:01;;;;;;;14.25;10.38;;;18.20;74.00;;;;;;5030854;28;20045;-68
2022/02/23 07:12:09;;;;;;;12.70;9.38;;;18.60;71.20;;;;;;5031429;28;20044;-68
2022/02/23 07:15:12;;;;;;;11.25;7.82;;;18.40;70.20;;;;;;5031098;28;20452;-67
2022/02/23 07:18:16;;;;;;;11.98;8.00;;;18.50;69.40;;;;;;5029930;28;20515;-68
2022/02/23 07:21:20;;;;;;;11.85;8.32;;;19.30;69.00;;;;;;5027944;28;20384;-67
2022/02/23 07:24:24;;;;;;;17.63;11.95;;;20.40;67.20;;;;;;5023893;28;20045;-68
2022/02/23 07:27:29;;;;;;;15.05;9.88;;;20.50;65.30;;;;;;5018125;28;20401;-68
2022/02/23 07:30:33;;;;;;;12.95;8.55;;;20.90;63.50;;;;;;5030842;28;20041;-68
2022/02/23 07:33:37;;;;;;;11.98;9.70;;;21.30;63.00;;;;;;5023339;28;20044;-68
2022/02/23 07:36:41;;;;;;;11.52;7.68;;;21.40;61.70;;;;;;5030904;28;20048;-68
2022/02/23 07:39:46;;;;;;;12.07;9.02;;;20.30;60.70;;;;;;5029612;28;20278;-68
2022/02/23 07:42:50;;;;;;;9.35;6.90;;;20.00;61.90;;;;;;5019299;28;20507;-68
2022/02/23 07:45:54;;;;;;;12.13;8.00;;;19.10;62.30;;;;;;5029952;28;20041;-68
2022/02/23 07:49:00;;;;;;;10.70;7.85;;;19.90;62.70;;;;;;5009954;28;20045;-68
2022/02/23 07:52:04;;;;;;;10.73;7.72;;;19.20;62.70;;;;;;5024250;28;20054;-68
2022/02/23 07:55:10;;;;;;;12.30;8.15;;;17.90;64.30;;;;;;5026788;28;20056;-68
2022/02/23 07:58:13;;;;;;;10.70;7.63;;;17.80;64.60;;;;;;5025510;28;20045;-68
2022/02/23 08:01:32;;;;;;;12.05;7.38;;;18.10;64.80;;;;;;5028829;28;20056;-68
2022/02/23 08:04:37;;;;;;;10.52;6.40;;;19.10;63.70;;;;;;5017592;28;20060;-68
2022/02/23 08:07:41;;;;;;;7.93;6.07;;;18.50;64.50;;;;;;5023915;28;20515;-68
2022/02/23 08:10:46;;;;;;;7.53;5.80;;;19.90;64.80;;;;;;5020365;28;20030;-68
2022/02/23 08:13:58;;;;;;;10.68;7.03;;;21.50;63.50;;;;;;5021813;28;20044;-69
2022/02/23 08:20:25;;;;;;;14.73;8.65;;;23.90;58.30;;;;;;5010676;28;20416;-68
2022/02/23 08:23:29;;;;;;;14.98;9.65;;;24.30;57.90;;;;;;5017924;28;20495;-68
2022/02/23 08:26:33;;;;;;;15.80;9.85;;;25.10;56.80;;;;;;5030127;28;20056;-68
2022/02/23 08:29:40;;;;;;;16.40;9.85;;;24.90;56.50;;;;;;5024022;28;20053;-69
2022/02/23 08:32:45;;;;;;;12.13;8.35;;;24.40;55.90;;;;;;5025476;28;20048;-68
2022/02/23 08:35:49;;;;;;;13.05;9.20;;;24.30;56.10;;;;;;5022025;28;20040;-69
2022/02/23 08:38:55;;;;;;;12.77;9.35;;;23.00;57.60;;;;;;5023786;28;20035;-69
2022/02/23 08:41:59;;;;;;;16.15;10.90;;;23.10;57.90;;;;;;5030738;28;20064;-69
2022/02/23 08:45:03;;;;;;;17.70;11.85;;;22.10;58.10;;;;;;5030108;28;20515;-69
2022/02/23 08:48:10;;;;;;;17.15;11.95;;;20.10;59.40;;;;;;5023474;28;20052;-69
2022/02/23 08:51:14;;;;;;;16.27;10.02;;;20.90;59.60;;;;;;5010089;28;20400;-69
2022/02/23 08:54:20;;;;;;;14.48;10.45;;;17.40;63.50;;;;;;5016643;28;20048;-69
2022/02/23 08:57:25;;;;;;;15.10;10.50;;;17.10;65.40;;;;;;5026453;28;20052;-69
2022/02/23 09:00:30;;;;;;;13.75;9.80;;;17.90;65.80;;;;;;5027996;28;20056;-66
2022/02/23 09:03:34;;;;;;;15.20;9.35;;;16.20;66.60;;;;;;5024687;28;20483;-66
2022/02/23 09:06:41;;;;;;;14.93;10.65;;;17.10;67.10;;;;;;5022746;28;20036;-66
2022/02/23 09:09:45;;;;;;;14.43;9.77;;;19.80;63.60;;;;;;5023391;28;20245;-66
2022/02/23 09:12:49;;;;;;;17.55;10.43;;;22.00;60.70;;;;;;5028336;28;20048;-67
2022/02/23 09:15:53;;;;;;;13.63;10.73;;;23.60;57.90;;;;;;5026084;28;20400;-66
2022/02/23 09:18:57;;;;;;;14.35;10.05;;;23.90;56.20;;;;;;5023375;28;20037;-66
2022/02/23 09:22:01;;;;;;;12.48;10.13;;;24.40;57.00;;;;;;5028391;28;20060;-67
2022/02/23 09:25:06;;;;;;;14.57;11.02;;;23.70;56.60;;;;;;5027915;28;20385;-67
2022/02/23 09:28:11;;;;;;;26.13;18.83;;;24.60;54.80;;;;;;5025185;28;20049;-66
2022/02/23 09:31:15;;;;;;;82.53;60.97;;;22.30;57.80;;;;;;5026760;28;20377;-66
2022/02/23 09:34:23;;;;;;;105.85;80.97;;;24.50;56.70;;;;;;5021423;28;20052;-67
2022/02/23 09:37:27;;;;;;;32.10;22.70;;;25.80;56.40;;;;;;5024721;28;20388;-66
2022/02/23 09:40:32;;;;;;;47.20;31.50;;;28.00;55.20;;;;;;5021893;28;20053;-66
2022/02/23 09:43:38;;;;;;;39.05;25.23;;;28.00;53.90;;;;;;5027420;28;20048;-66
2022/02/23 09:46:43;;;;;;;40.97;28.85;;;29.50;52.80;;;;;;5022416;28;20212;-67
2022/02/23 09:49:47;;;;;;;67.40;51.50;;;30.60;51.70;;;;;;5025062;28;20056;-67
2022/02/23 09:52:52;;;;;;;35.63;25.67;;;29.20;51.30;;;;;;5027331;28;20053;-67
2022/02/23 09:55:59;;;;;;;36.45;27.33;;;27.70;50.40;;;;;;5027995;28;20036;-67
2022/02/23 09:59:02;;;;;;;34.75;24.90;;;29.80;51.80;;;;;;5031719;28;20499;-67
2022/02/23 10:02:10;;;;;;;32.53;23.58;;;26.80;51.10;;;;;;5030293;28;20554;-67
2022/02/23 10:05:17;;;;;;;32.83;23.65;;;25.20;53.00;;;;;;5026338;28;20057;-67
2022/02/23 10:08:33;;;;;;;30.27;21.50;;;26.90;52.40;;;;;;5027608;28;20052;-68
2022/02/23 10:11:39;;;;;;;27.10;20.23;;;29.80;51.80;;;;;;5030659;28;20056;-67
2022/02/23 10:14:44;;;;;;;24.55;17.83;;;31.20;50.30;;;;;;5031199;28;20041;-67
2022/02/23 10:17:51;;;;;;;23.98;17.42;;;31.60;49.40;;;;;;5032544;28;20385;-67
2022/02/23 10:20:57;;;;;;;21.60;16.58;;;29.00;49.90;;;;;;5031505;28;20052;-67
2022/02/23 10:24:24;;;;;;;18.92;15.35;;;29.60;49.60;;;;;;5032036;28;20410;-67
2022/02/23 10:27:37;;;;;;;18.88;14.80;;;32.30;50.20;;;;;;5028222;28;20060;-68
2022/02/23 10:30:59;;;;;;;16.48;12.98;;;34.20;48.20;;;;;;5025994;28;20049;-68
2022/02/23 10:34:19;;;;;;;15.40;12.48;;;35.10;47.40;;;;;;5027959;28;20044;-68
2022/02/23 10:37:24;;;;;;;;;;;36.30;47.30;;;;;;5024557;28;20052;-67
2022/02/23 10:40:28;;;;;;;15.10;11.85;;;37.00;45.80;;;;;;5028836;28;19917;-68
2022/02/23 10:43:42;;;;;;;14.73;11.48;;;36.50;44.40;;;;;;5024933;28;20076;-68
2022/02/23 10:46:47;;;;;;;12.73;10.48;;;36.70;45.10;;;;;;5026494;28;20052;-68
2022/02/23 10:50:22;;;;;;;14.93;11.85;;;37.10;44.30;;;;;;5023856;28;20500;-68
2022/02/23 10:53:30;;;;;;;11.95;10.73;;;33.10;43.70;;;;;;5021109;28;20048;-68
2022/02/23 10:56:39;;;;;;;12.30;8.88;;;30.80;45.20;;;;;;5030509;28;20032;-69
2022/02/23 10:59:43;;;;;;;10.95;8.38;;;31.70;46.80;;;;;;5025882;28;20060;-69
2022/02/23 11:02:48;;;;;;;10.85;7.63;;;29.80;46.40;;;;;;5029220;28;20400;-68
2022/02/23 11:05:52;;;;;;;10.38;8.05;;;31.80;46.30;;;;;;5026595;28;20463;-68
2022/02/23 11:08:57;;;;;;;12.40;9.15;;;34.00;44.40;;;;;;5027265;28;20052;-68
2022/02/23 11:12:03;;;;;;;9.55;6.82;;;33.20;44.10;;;;;;5027991;28;20052;-69
2022/02/23 11:15:08;;;;;;;8.75;7.43;;;33.10;43.90;;;;;;5024850;28;20400;-69
2022/02/23 11:18:15;;;;;;;8.85;7.53;;;34.50;44.60;;;;;;5021616;28;20045;-69
2022/02/23 11:21:20;;;;;;;8.90;6.90;;;34.40;43.10;;;;;;5029815;28;20061;-69
2022/02/23 11:24:26;;;;;;;9.07;6.00;;;33.40;44.00;;;;;;5028113;28;20058;-69
2022/02/23 11:27:33;;;;;;;7.75;6.30;;;35.10;44.30;;;;;;5026762;28;20040;-70
2022/02/23 11:30:37;;;;;;;6.95;5.43;;;35.70;43.60;;;;;;5024945;28;20045;-68
2022/02/23 11:33:47;;;;;;;5.18;4.32;;;37.00;43.00;;;;;;5027675;28;20384;-69
2022/02/23 11:36:53;;;;;;;6.30;3.92;;;38.00;42.70;;;;;;5027645;28;20034;-69
2022/02/23 11:39:57;;;;;;;5.30;3.50;;;38.70;42.10;;;;;;5026916;28;20038;-68
2022/02/23 11:43:27;;;;;;;5.28;3.25;;;39.70;41.20;;;;;;5029137;28;20044;-68
2022/02/23 11:46:31;;;;;;;4.30;3.25;;;39.90;40.60;;;;;;5022236;28;20505;-68
2022/02/23 11:49:36;;;;;;;4.68;2.95;;;39.80;40.70;;;;;;5028879;28;20037;-68
2022/02/23 11:52:45;;;;;;;3.83;2.38;;;39.40;40.20;;;;;;5028526;28;20044;-69
2022/02/23 11:56:12;;;;;;;5.80;3.20;;;39.50;39.50;;;;;;5027661;28;20045;-70
2022/02/23 11:59:46;;;;;;;4.03;2.85;;;40.10;39.30;;;;;;5029104;28;20045;-69
2022/02/23 12:03:21;;;;;;;3.03;2.58;;;40.00;39.10;;;;;;5025750;28;20495;-67
2022/02/23 12:06:25;;;;;;;5.53;2.65;;;39.20;39.90;;;;;;5024853;28;20043;-68
2022/02/23 12:09:57;;;;;;;4.97;2.55;;;39.60;39.80;;;;;;5028454;28;20491;-68
2022/02/23 12:13:01;;;;;;;3.90;2.08;;;39.50;39.50;;;;;;5025296;28;20041;-68
2022/02/23 12:16:24;;;;;;;5.80;3.00;;;39.70;39.40;;;;;;5029740;28;20041;-67
2022/02/23 12:19:55;;;;;;;3.15;2.30;;;39.50;39.60;;;;;;5025866;28;20053;-67
2022/02/23 12:23:06;;;;;;;4.43;2.85;;;38.50;39.70;;;;;;5028768;28;20058;-65
2022/02/23 12:26:17;;;;;;;2.70;2.22;;;35.70;40.40;;;;;;5021989;28;20104;-66
2022/02/23 12:29:29;;;;;;;3.22;2.20;;;37.20;40.50;;;;;;5022928;28;20045;-67
2022/02/23 12:32:34;;;;;;;3.40;2.40;;;37.40;38.90;;;;;;5022679;28;20420;-66
2022/02/23 12:35:40;;;;;;;3.80;2.53;;;31.60;41.90;;;;;;5029035;28;20044;-68
2022/02/23 12:38:49;;;;;;;4.05;2.50;;;33.00;43.30;;;;;;5027658;28;20038;-67
2022/02/23 12:42:03;;;;;;;5.32;2.63;;;32.70;41.60;;;;;;5026355;28;20041;-66
2022/02/23 12:45:09;;;;;;;3.83;2.53;;;29.90;42.50;;;;;;5023330;28;20056;-66
2022/02/23 12:48:14;;;;;;;5.32;2.47;;;31.00;42.80;;;;;;5025974;28;20045;-67
2022/02/23 12:51:19;;;;;;;4.32;2.60;;;31.60;43.00;;;;;;5023675;28;20022;-66
2022/02/23 12:54:26;;;;;;;2.90;2.35;;;32.20;43.40;;;;;;5025326;28;20037;-66
2022/02/23 12:57:30;;;;;;;4.78;2.53;;;33.20;42.30;;;;;;5025047;28;20036;-67
2022/02/23 13:00:34;;;;;;;4.63;2.60;;;35.00;42.00;;;;;;5023893;28;20044;-67
2022/02/23 13:03:38;;;;;;;3.08;2.08;;;33.80;39.40;;;;;;5024235;28;20069;-67
2022/02/23 13:06:50;;;;;;;3.03;2.40;;;33.80;40.00;;;;;;5019858;28;20033;-67
2022/02/23 13:10:02;;;;;;;2.58;1.85;;;33.70;42.10;;;;;;5020173;28;20048;-66
2022/02/23 13:13:07;;;;;;;2.28;1.70;;;35.10;40.30;;;;;;5028061;28;20409;-68
2022/02/23 13:16:12;;;;;;;3.05;2.03;;;35.30;39.90;;;;;;5021014;28;20040;-68
2022/02/23 13:19:17;;;;;;;3.10;2.22;;;33.30;40.70;;;;;;5022039;28;20038;-69
2022/02/23 13:22:23;;;;;;;3.17;1.88;;;34.40;41.40;;;;;;5023919;28;20046;-68
2022/02/23 13:25:27;;;;;;;5.65;2.00;;;36.10;40.90;;;;;;5029660;28;20038;-67
2022/02/23 13:28:31;;;;;;;2.95;2.00;;;34.40;40.40;;;;;;5025466;28;20033;-67
2022/02/23 13:31:36;;;;;;;2.65;1.90;;;34.50;40.90;;;;;;5029147;28;20045;-67
2022/02/23 13:34:42;;;;;;;2.55;1.80;;;33.90;39.90;;;;;;5031014;28;20044;-67
2022/02/23 13:37:48;;;;;;;3.15;1.90;;;32.60;40.40;;;;;;5032042;28;20025;-67
2022/02/23 13:40:52;;;;;;;5.20;2.15;;;32.00;39.50;;;;;;5025600;28;20041;-67
2022/02/23 13:43:56;;;;;;;5.05;2.10;;;32.40;42.80;;;;;;5030002;28;20042;-67
2022/02/23 13:47:12;;;;;;;2.80;1.75;;;33.40;41.00;;;;;;5032808;28;20386;-67
2022/02/23 13:50:21;;;;;;;2.63;1.70;;;32.50;41.00;;;;;;5026164;28;20048;-67
2022/02/23 13:53:32;;;;;;;2.00;1.63;;;32.00;40.60;;;;;;5025693;28;20050;-66
2022/02/23 13:56:45;;;;;;;3.28;1.70;;;32.00;41.90;;;;;;5032226;28;20037;-66
2022/02/23 13:59:49;;;;;;;6.18;1.70;;;33.60;40.80;;;;;;5029792;28;20026;-66
2022/02/23 14:03:10;;;;;;;4.30;1.35;;;34.60;40.60;;;;;;5028319;28;20044;-67
2022/02/23 14:06:16;;;;;;;2.92;1.60;;;35.30;40.30;;;;;;5023809;28;20041;-67
2022/02/23 14:09:20;;;;;;;2.33;1.10;;;35.50;39.40;;;;;;5023378;28;20138;-67
2022/02/23 14:12:31;;;;;;;2.90;1.20;;;35.90;38.90;;;;;;5024701;28;20163;-67
2022/02/23 14:15:38;;;;;;;2.35;1.17;;;35.50;39.00;;;;;;5026656;28;20041;-67
2022/02/23 14:18:51;;;;;;;1.90;1.00;;;35.70;39.10;;;;;;5026769;28;20044;-67
2022/02/23 14:21:59;;;;;;;2.97;1.60;;;35.70;38.60;;;;;;5025157;28;20041;-67
2022/02/23 14:25:06;;;;;;;2.05;1.27;;;32.70;37.90;;;;;;5028930;28;20041;-66
2022/02/23 14:28:25;;;;;;;5.88;1.40;;;30.50;42.50;;;;;;5023708;28;20040;-66
2022/02/23 14:31:34;;;;;;;4.60;1.92;;;31.00;41.60;;;;;;5020680;28;20040;-67
2022/02/23 14:34:38;;;;;;;2.95;1.70;;;31.40;41.60;;;;;;5021143;28;20026;-67
2022/02/23 14:37:46;;;;;;;2.75;1.50;;;30.50;40.90;;;;;;5027387;28;20121;-67
2022/02/23 14:40:50;;;;;;;2.60;1.45;;;30.90;41.50;;;;;;5020386;28;20038;-66
2022/02/23 14:43:54;;;;;;;4.07;1.20;;;31.80;41.50;;;;;;5024051;28;20045;-67
2022/02/23 14:46:58;;;;;;;3.00;1.70;;;32.40;41.00;;;;;;5021370;28;20391;-67
2022/02/23 14:50:10;;;;;;;2.97;1.48;;;32.60;41.50;;;;;;5014174;28;20046;-67
2022/02/23 14:53:14;;;;;;;6.10;1.42;;;32.50;41.10;;;;;;5023954;28;20043;-68
2022/02/23 14:56:19;;;;;;;2.92;1.67;;;32.70;41.10;;;;;;5020032;28;20049;-68
2022/02/23 14:59:23;;;;;;;2.55;1.67;;;32.40;41.10;;;;;;5020802;28;20030;-67
2022/02/23 15:02:27;;;;;;;3.05;1.60;;;32.20;41.40;;;;;;5030552;28;20056;-67
2022/02/23 15:05:33;;;;;;;2.05;1.40;;;32.00;41.50;;;;;;5035957;28;20028;-68
2022/02/23 15:08:37;;;;;;;3.47;1.70;;;32.00;41.60;;;;;;5018351;28;20049;-67
2022/02/23 15:11:42;;;;;;;2.80;1.55;;;30.60;40.10;;;;;;5028985;28;20123;-67
2022/02/23 15:14:46;;;;;;;3.58;2.30;;;30.10;42.40;;;;;;5030925;28;20493;-67
2022/02/23 15:17:52;;;;;;;5.72;2.78;;;30.40;42.40;;;;;;5027771;28;20060;-67
2022/02/23 15:20:56;;;;;;;3.97;2.40;;;30.70;42.10;;;;;;5021674;28;20047;-66
2022/02/23 15:24:00;;;;;;;4.25;1.92;;;30.50;42.30;;;;;;5024239;28;20030;-67
2022/02/23 15:27:04;;;;;;;4.13;1.80;;;30.30;42.70;;;;;;5017256;28;20053;-67
2022/02/23 15:30:11;;;;;;;7.18;2.15;;;30.10;42.90;;;;;;5018208;28;20045;-67
2022/02/23 15:33:16;;;;;;;3.67;1.95;;;29.60;42.70;;;;;;5025407;28;20044;-67
2022/02/23 15:36:20;;;;;;;3.17;1.60;;;29.60;42.80;;;;;;5020558;28;20045;-67
2022/02/23 15:39:23;;;;;;;2.13;1.48;;;29.30;43.10;;;;;;5027448;28;20044;-68
2022/02/23 15:42:27;;;;;;;2.83;1.50;;;29.00;43.50;;;;;;5013091;28;20050;-66
2022/02/23 15:45:32;;;;;;;2.38;1.45;;;28.70;43.30;;;;;;5028926;28;20029;-67
2022/02/23 15:48:36;;;;;;;2.63;1.50;;;28.20;43.10;;;;;;5025188;28;20034;-67
2022/02/23 15:51:40;;;;;;;4.22;1.98;;;27.80;43.60;;;;;;5027090;28;20052;-67
2022/02/23 15:54:44;;;;;;;4.18;1.92;;;26.80;44.00;;;;;;5015807;28;20392;-67
2022/02/23 15:57:48;;;;;;;2.67;2.00;;;26.30;45.80;;;;;;5021410;28;20038;-66
2022/02/23 16:00:52;;;;;;;7.75;2.72;;;25.40;46.90;;;;;;5025473;28;20706;-66
2022/02/23 16:03:57;;;;;;;4.28;2.78;;;24.80;47.10;;;;;;5025004;28;20533;-67
2022/02/23 16:07:01;;;;;;;6.00;3.35;;;24.10;48.30;;;;;;5027629;28;20045;-68